Eareckson Air Station


Codes: PASY/SYA
Name: Eareckson Air Station
City: Shemya
Country: United States
Elevation: 95 ft.
Wikipedia:

Photos at Eareckson Air Station


   Photos courtesy of SpottingLog. You can add your own sightings and photos by signing up for a free trial today.



No photos found.

Weather at Eareckson Air Station


Time (UTC)DescriptionTempratureWindCloud coverageVisibilityPressureHumidity
17-Jun-2024 06:00Light Rain7°C16 mph, NE100%10000m1010hPa100%
17-Jun-2024 09:00Overcast Clouds7°C13 mph, NE100%10000m1010hPa98%
17-Jun-2024 12:00Light Rain6°C13 mph, NE100%10000m1011hPa98%
17-Jun-2024 15:00Light Rain6°C13 mph, NE100%10000m1012hPa97%
17-Jun-2024 18:00Light Rain6°C13 mph, NE100%10000m1012hPa97%
17-Jun-2024 21:00Overcast Clouds6°C16 mph, NE100%10000m1014hPa96%
18-Jun-2024 00:00Overcast Clouds6°C16 mph, NE100%10000m1014hPa96%
18-Jun-2024 03:00Scattered Clouds6°C16 mph, NE46%10000m1014hPa89%
18-Jun-2024 06:00Scattered Clouds6°C16 mph, NE30%10000m1014hPa90%
18-Jun-2024 09:00Few Clouds6°C16 mph, N14%10000m1015hPa89%
18-Jun-2024 12:00Clear Sky6°C18 mph, N10%10000m1015hPa89%
18-Jun-2024 15:00Clear Sky6°C18 mph, N6%10000m1014hPa89%
18-Jun-2024 18:00Few Clouds6°C18 mph, N14%10000m1015hPa90%
18-Jun-2024 21:00Broken Clouds6°C16 mph, N65%10000m1015hPa91%
19-Jun-2024 00:00Scattered Clouds6°C16 mph, N41%10000m1016hPa90%
19-Jun-2024 03:00Few Clouds6°C16 mph, N21%10000m1016hPa91%
19-Jun-2024 06:00Few Clouds6°C16 mph, N19%10000m1016hPa90%
19-Jun-2024 09:00Clear Sky6°C13 mph, N1%10000m1016hPa89%
19-Jun-2024 12:00Clear Sky6°C11 mph, N3%10000m1016hPa88%
19-Jun-2024 15:00Clear Sky6°C11 mph, N1%10000m1016hPa88%
19-Jun-2024 18:00Clear Sky6°C11 mph, N1%10000m1016hPa89%
19-Jun-2024 21:00Clear Sky6°C11 mph, N0%10000m1016hPa90%
20-Jun-2024 00:00Clear Sky6°C9 mph, N3%10000m1016hPa90%
20-Jun-2024 03:00Clear Sky7°C7 mph, N10%10000m1016hPa88%
20-Jun-2024 06:00Few Clouds7°C9 mph, N11%10000m1016hPa85%
20-Jun-2024 09:00Few Clouds7°C7 mph, N20%10000m1017hPa83%
20-Jun-2024 12:00Few Clouds7°C7 mph, N17%10000m1016hPa82%
20-Jun-2024 15:00Scattered Clouds7°C4 mph, N46%10000m1016hPa83%
20-Jun-2024 18:00Broken Clouds6°C4 mph, NE72%10000m1017hPa84%
20-Jun-2024 21:00Overcast Clouds6°C4 mph, NE98%10000m1017hPa86%
21-Jun-2024 00:00Overcast Clouds6°C4 mph, E94%10000m1017hPa85%
21-Jun-2024 03:00Broken Clouds6°C4 mph, E83%10000m1017hPa83%
21-Jun-2024 06:00Broken Clouds7°C4 mph, E71%10000m1017hPa83%
21-Jun-2024 09:00Broken Clouds6°C7 mph, E69%10000m1018hPa86%
21-Jun-2024 12:00Broken Clouds6°C7 mph, E81%10000m1018hPa87%
21-Jun-2024 15:00Overcast Clouds6°C7 mph, E100%10000m1017hPa87%
21-Jun-2024 18:00Overcast Clouds6°C7 mph, E100%10000m1018hPa87%
21-Jun-2024 21:00Overcast Clouds6°C7 mph, E100%10000m1018hPa87%
22-Jun-2024 00:00Overcast Clouds6°C7 mph, E100%10000m1018hPa86%
22-Jun-2024 03:00Overcast Clouds7°C4 mph, E99%10000m1018hPa85%